sensor_id;sensor_type;location;lat;lon;timestamp;pressure;altitude;pressure_sealevel;temperature;humidity
37368;BME280;23240;43.210;27.910;2023-02-23T00:01:51;101246.72;;;6.22;100.00
37368;BME280;23240;43.210;27.910;2023-02-23T00:04:16;101245.09;;;6.19;100.00
37368;BME280;23240;43.210;27.910;2023-02-23T00:06:45;101247.22;;;6.12;100.00
37368;BME280;23240;43.210;27.910;2023-02-23T00:09:10;101246.47;;;6.10;100.00
37368;BME280;23240;43.210;27.910;2023-02-23T00:11:58;101242.09;;;6.09;100.00
37368;BME280;23240;43.210;27.910;2023-02-23T00:14:24;101237.53;;;5.96;100.00
37368;BME280;23240;43.210;27.910;2023-02-23T00:16:51;101239.84;;;6.02;100.00
37368;BME280;23240;43.210;27.910;2023-02-23T00:19:16;101237.53;;;5.96;100.00
37368;BME280;23240;43.210;27.910;2023-02-23T00:21:42;101240.41;;;5.91;100.00
37368;BME280;23240;43.210;27.910;2023-02-23T00:24:08;101240.09;;;5.97;100.00
37368;BME280;23240;43.210;27.910;2023-02-23T00:26:35;101242.66;;;5.99;100.00
37368;BME280;23240;43.210;27.910;2023-02-23T00:29:05;101241.63;;;6.01;100.00
37368;BME280;23240;43.210;27.910;2023-02-23T00:31:30;101249.63;;;6.01;100.00
37368;BME280;23240;43.210;27.910;2023-02-23T00:33:57;101246.97;;;6.01;100.00
37368;BME280;23240;43.210;27.910;2023-02-23T00:36:23;101240.84;;;5.99;100.00
37368;BME280;23240;43.210;27.910;2023-02-23T00:38:53;101247.31;;;5.95;100.00
37368;BME280;23240;43.210;27.910;2023-02-23T00:41:19;101238.19;;;5.99;100.00
37368;BME280;23240;43.210;27.910;2023-02-23T00:43:47;101231.16;;;5.98;100.00
37368;BME280;23240;43.210;27.910;2023-02-23T00:46:16;101236.31;;;6.01;100.00
37368;BME280;23240;43.210;27.910;2023-02-23T00:48:42;101233.41;;;6.06;100.00
37368;BME280;23240;43.210;27.910;2023-02-23T00:51:08;101226.28;;;6.06;100.00
37368;BME280;23240;43.210;27.910;2023-02-23T00:53:33;101227.41;;;6.02;100.00
37368;BME280;23240;43.210;27.910;2023-02-23T00:55:59;101227.41;;;6.02;100.00
37368;BME280;23240;43.210;27.910;2023-02-23T00:58:24;101225.50;;;6.04;100.00
37368;BME280;23240;43.210;27.910;2023-02-23T01:00:50;101230.81;;;6.04;100.00
37368;BME280;23240;43.210;27.910;2023-02-23T01:03:16;101227.59;;;6.15;100.00
37368;BME280;23240;43.210;27.910;2023-02-23T01:05:42;101233.91;;;6.12;100.00
37368;BME280;23240;43.210;27.910;2023-02-23T01:08:08;101225.19;;;6.10;100.00
37368;BME280;23240;43.210;27.910;2023-02-23T01:10:41;101228.50;;;6.14;100.00
37368;BME280;23240;43.210;27.910;2023-02-23T01:13:07;101233.81;;;6.14;100.00
37368;BME280;23240;43.210;27.910;2023-02-23T01:15:33;101225.94;;;6.12;100.00
37368;BME280;23240;43.210;27.910;2023-02-23T01:17:58;101212.84;;;6.09;100.00
37368;BME280;23240;43.210;27.910;2023-02-23T01:20:23;101215.56;;;6.08;100.00
37368;BME280;23240;43.210;27.910;2023-02-23T01:22:49;101209.28;;;6.09;100.00
37368;BME280;23240;43.210;27.910;2023-02-23T01:25:15;101207.66;;;6.06;100.00
37368;BME280;23240;43.210;27.910;2023-02-23T01:27:41;101209.03;;;6.13;100.00
37368;BME280;23240;43.210;27.910;2023-02-23T01:30:12;101213.09;;;6.21;100.00
37368;BME280;23240;43.210;27.910;2023-02-23T01:32:39;101205.53;;;6.29;100.00
37368;BME280;23240;43.210;27.910;2023-02-23T01:35:05;101207.59;;;6.39;100.00
37368;BME280;23240;43.210;27.910;2023-02-23T01:37:35;101212.91;;;6.39;100.00
37368;BME280;23240;43.210;27.910;2023-02-23T01:40:01;101216.75;;;6.50;100.00
37368;BME280;23240;43.210;27.910;2023-02-23T01:42:35;101209.72;;;6.33;100.00
37368;BME280;23240;43.210;27.910;2023-02-23T01:48:19;101205.94;;;6.37;100.00
37368;BME280;23240;43.210;27.910;2023-02-23T01:53:14;101207.56;;;6.24;100.00
37368;BME280;23240;43.210;27.910;2023-02-23T01:55:40;101208.59;;;6.37;100.00
37368;BME280;23240;43.210;27.910;2023-02-23T01:58:07;101215.56;;;6.39;100.00
37368;BME280;23240;43.210;27.910;2023-02-23T02:00:39;101230.50;;;6.42;100.00
37368;BME280;23240;43.210;27.910;2023-02-23T02:03:06;101225.59;;;6.50;100.00
37368;BME280;23240;43.210;27.910;2023-02-23T02:05:36;101229.97;;;6.51;100.00
37368;BME280;23240;43.210;27.910;2023-02-23T02:08:03;101227.16;;;6.54;100.00
37368;BME280;23240;43.210;27.910;2023-02-23T02:10:30;101221.63;;;6.57;100.00
37368;BME280;23240;43.210;27.910;2023-02-23T02:13:08;101224.97;;;6.61;100.00
37368;BME280;23240;43.210;27.910;2023-02-23T02:15:40;101234.00;;;6.58;100.00
37368;BME280;23240;43.210;27.910;2023-02-23T02:18:10;101237.88;;;6.53;100.00
37368;BME280;23240;43.210;27.910;2023-02-23T02:31:33;101232.47;;;6.54;100.00
37368;BME280;23240;43.210;27.910;2023-02-23T02:34:24;101249.13;;;6.58;100.00
37368;BME280;23240;43.210;27.910;2023-02-23T02:47:27;101242.88;;;6.89;100.00
37368;BME280;23240;43.210;27.910;2023-02-23T02:49:58;101258.31;;;6.98;100.00
37368;BME280;23240;43.210;27.910;2023-02-23T02:52:45;101255.50;;;7.01;100.00
37368;BME280;23240;43.210;27.910;2023-02-23T02:55:17;101254.28;;;7.07;100.00
37368;BME280;23240;43.210;27.910;2023-02-23T02:57:47;101261.91;;;7.13;100.00
37368;BME280;23240;43.210;27.910;2023-02-23T03:00:16;101256.31;;;7.17;100.00
37368;BME280;23240;43.210;27.910;2023-02-23T03:03:00;101267.44;;;7.24;100.00
37368;BME280;23240;43.210;27.910;2023-02-23T03:05:46;101267.94;;;7.31;100.00
37368;BME280;23240;43.210;27.910;2023-02-23T03:08:48;101251.59;;;7.37;100.00
37368;BME280;23240;43.210;27.910;2023-02-23T03:11:37;101257.78;;;7.37;100.00
37368;BME280;23240;43.210;27.910;2023-02-23T03:15:10;101265.88;;;7.36;100.00
37368;BME280;23240;43.210;27.910;2023-02-23T03:23:18;101258.78;;;7.35;100.00
37368;BME280;23240;43.210;27.910;2023-02-23T03:26:06;101268.81;;;7.31;100.00
37368;BME280;23240;43.210;27.910;2023-02-23T03:31:38;101276.88;;;7.30;100.00
37368;BME280;23240;43.210;27.910;2023-02-23T03:34:32;101272.44;;;7.30;100.00
37368;BME280;23240;43.210;27.910;2023-02-23T03:37:23;101281.34;;;7.29;100.00
37368;BME280;23240;43.210;27.910;2023-02-23T03:40:20;101273.44;;;7.28;100.00
37368;BME280;23240;43.210;27.910;2023-02-23T03:43:05;101275.00;;;7.32;100.00
37368;BME280;23240;43.210;27.910;2023-02-23T03:45:50;101272.13;;;7.35;100.00
37368;BME280;23240;43.210;27.910;2023-02-23T03:48:35;101271.19;;;7.36;100.00
37368;BME280;23240;43.210;27.910;2023-02-23T03:51:19;101281.06;;;7.34;100.00
37368;BME280;23240;43.210;27.910;2023-02-23T03:54:20;101290.72;;;7.36;100.00
37368;BME280;23240;43.210;27.910;2023-02-23T03:57:07;101293.28;;;7.38;100.00
37368;BME280;23240;43.210;27.910;2023-02-23T03:59:55;101285.75;;;7.44;100.00
37368;BME280;23240;43.210;27.910;2023-02-23T04:02:40;101292.16;;;7.42;100.00
37368;BME280;23240;43.210;27.910;2023-02-23T04:05:25;101281.66;;;7.39;100.00
37368;BME280;23240;43.210;27.910;2023-02-23T04:08:10;101293.38;;;7.36;100.00
37368;BME280;23240;43.210;27.910;2023-02-23T04:11:01;101286.34;;;7.35;100.00
37368;BME280;23240;43.210;27.910;2023-02-23T04:13:50;101302.50;;;7.32;100.00
37368;BME280;23240;43.210;27.910;2023-02-23T04:16:18;101297.06;;;7.34;100.00
37368;BME280;23240;43.210;27.910;2023-02-23T04:18:44;101300.09;;;7.28;100.00
37368;BME280;23240;43.210;27.910;2023-02-23T04:21:09;101301.63;;;7.32;100.00
37368;BME280;23240;43.210;27.910;2023-02-23T04:23:34;101294.59;;;7.31;100.00
37368;BME280;23240;43.210;27.910;2023-02-23T04:26:01;101297.25;;;7.31;100.00
37368;BME280;23240;43.210;27.910;2023-02-23T04:28:29;101301.75;;;7.30;100.00
37368;BME280;23240;43.210;27.910;2023-02-23T04:30:54;101301.44;;;7.35;100.00
37368;BME280;23240;43.210;27.910;2023-02-23T04:33:20;101306.78;;;7.35;100.00
37368;BME280;23240;43.210;27.910;2023-02-23T04:35:46;101305.06;;;7.34;100.00
37368;BME280;23240;43.210;27.910;2023-02-23T04:38:11;101296.09;;;7.35;100.00
37368;BME280;23240;43.210;27.910;2023-02-23T04:40:36;101298.72;;;7.36;100.00
37368;BME280;23240;43.210;27.910;2023-02-23T04:43:02;101297.91;;;7.34;100.00
37368;BME280;23240;43.210;27.910;2023-02-23T04:45:27;101308.78;;;7.31;100.00
37368;BME280;23240;43.210;27.910;2023-02-23T04:47:53;101306.38;;;7.27;100.00
37368;BME280;23240;43.210;27.910;2023-02-23T04:50:18;101305.53;;;7.26;100.00
37368;BME280;23240;43.210;27.910;2023-02-23T04:52:44;101310.06;;;7.24;100.00
37368;BME280;23240;43.210;27.910;2023-02-23T04:55:19;101314.44;;;7.25;100.00
37368;BME280;23240;43.210;27.910;2023-02-23T04:57:45;101309.41;;;7.20;100.00
37368;BME280;23240;43.210;27.910;2023-02-23T05:00:11;101311.13;;;7.21;100.00
37368;BME280;23240;43.210;27.910;2023-02-23T05:02:37;101321.59;;;7.25;100.00
37368;BME280;23240;43.210;27.910;2023-02-23T05:05:02;101317.91;;;7.27;100.00
37368;BME280;23240;43.210;27.910;2023-02-23T05:07:27;101319.50;;;7.30;100.00
37368;BME280;23240;43.210;27.910;2023-02-23T05:09:53;101323.72;;;7.34;100.00
37368;BME280;23240;43.210;27.910;2023-02-23T05:12:18;101328.47;;;7.29;100.00
37368;BME280;23240;43.210;27.910;2023-02-23T05:14:44;101328.03;;;7.36;100.00
37368;BME280;23240;43.210;27.910;2023-02-23T05:17:09;101335.81;;;7.39;100.00
37368;BME280;23240;43.210;27.910;2023-02-23T05:19:35;101336.78;;;7.38;100.00
37368;BME280;23240;43.210;27.910;2023-02-23T05:22:02;101336.34;;;7.46;100.00
37368;BME280;23240;43.210;27.910;2023-02-23T05:24:27;101336.41;;;7.44;100.00
37368;BME280;23240;43.210;27.910;2023-02-23T05:26:52;101340.59;;;7.48;100.00
37368;BME280;23240;43.210;27.910;2023-02-23T05:29:17;101339.59;;;7.51;100.00
37368;BME280;23240;43.210;27.910;2023-02-23T05:31:44;101346.63;;;7.52;100.00
37368;BME280;23240;43.210;27.910;2023-02-23T05:34:10;101348.00;;;7.59;100.00
37368;BME280;23240;43.210;27.910;2023-02-23T05:36:35;101350.72;;;7.58;100.00
37368;BME280;23240;43.210;27.910;2023-02-23T05:39:02;101356.91;;;7.58;100.00
37368;BME280;23240;43.210;27.910;2023-02-23T05:41:27;101357.69;;;7.60;100.00
37368;BME280;23240;43.210;27.910;2023-02-23T05:43:53;101366.44;;;7.62;100.00
37368;BME280;23240;43.210;27.910;2023-02-23T05:46:19;101357.50;;;7.63;100.00
37368;BME280;23240;43.210;27.910;2023-02-23T05:48:46;101374.66;;;7.59;100.00
37368;BME280;23240;43.210;27.910;2023-02-23T05:51:12;101355.50;;;7.67;100.00
37368;BME280;23240;43.210;27.910;2023-02-23T05:53:38;101369.25;;;7.75;100.00
37368;BME280;23240;43.210;27.910;2023-02-23T05:56:04;101379.56;;;7.81;100.00
37368;BME280;23240;43.210;27.910;2023-02-23T05:58:29;101380.41;;;7.82;100.00
37368;BME280;23240;43.210;27.910;2023-02-23T06:00:55;101389.19;;;7.84;100.00
37368;BME280;23240;43.210;27.910;2023-02-23T06:03:21;101388.81;;;7.90;100.00
37368;BME280;23240;43.210;27.910;2023-02-23T06:05:53;101377.38;;;8.02;100.00
37368;BME280;23240;43.210;27.910;2023-02-23T06:08:18;101384.25;;;8.06;100.00
37368;BME280;23240;43.210;27.910;2023-02-23T06:10:44;101389.31;;;8.11;100.00
37368;BME280;23240;43.210;27.910;2023-02-23T06:13:09;101392.66;;;8.14;100.00
37368;BME280;23240;43.210;27.910;2023-02-23T06:15:35;101383.41;;;8.20;100.00
37368;BME280;23240;43.210;27.910;2023-02-23T06:18:01;101390.69;;;8.18;100.00
37368;BME280;23240;43.210;27.910;2023-02-23T06:20:26;101388.66;;;8.21;100.00
37368;BME280;23240;43.210;27.910;2023-02-23T06:22:52;101402.97;;;8.20;100.00
37368;BME280;23240;43.210;27.910;2023-02-23T06:25:18;101408.88;;;8.25;100.00
37368;BME280;23240;43.210;27.910;2023-02-23T06:27:44;101405.84;;;8.32;100.00
37368;BME280;23240;43.210;27.910;2023-02-23T06:30:09;101394.38;;;8.30;100.00
37368;BME280;23240;43.210;27.910;2023-02-23T06:32:35;101405.63;;;8.35;100.00
37368;BME280;23240;43.210;27.910;2023-02-23T06:35:01;101411.50;;;8.41;100.00
37368;BME280;23240;43.210;27.910;2023-02-23T06:37:27;101408.53;;;8.46;100.00
37368;BME280;23240;43.210;27.910;2023-02-23T06:39:53;101417.31;;;8.48;100.00
37368;BME280;23240;43.210;27.910;2023-02-23T06:42:18;101400.91;;;8.54;100.00
37368;BME280;23240;43.210;27.910;2023-02-23T06:44:43;101411.41;;;8.57;100.00
37368;BME280;23240;43.210;27.910;2023-02-23T06:47:09;101418.28;;;8.61;100.00
37368;BME280;23240;43.210;27.910;2023-02-23T06:49:35;101407.09;;;8.69;100.00
37368;BME280;23240;43.210;27.910;2023-02-23T06:52:01;101421.78;;;8.76;100.00
37368;BME280;23240;43.210;27.910;2023-02-23T06:54:26;101421.84;;;8.89;100.00
37368;BME280;23240;43.210;27.910;2023-02-23T06:56:51;101422.06;;;8.86;100.00
37368;BME280;23240;43.210;27.910;2023-02-23T06:59:17;101430.72;;;8.89;100.00
37368;BME280;23240;43.210;27.910;2023-02-23T07:01:42;101434.28;;;8.90;100.00
37368;BME280;23240;43.210;27.910;2023-02-23T07:04:08;101436.56;;;8.96;100.00
37368;BME280;23240;43.210;27.910;2023-02-23T07:06:34;101437.03;;;8.88;100.00
37368;BME280;23240;43.210;27.910;2023-02-23T07:08:59;101440.94;;;8.97;100.00
37368;BME280;23240;43.210;27.910;2023-02-23T07:11:24;101430.63;;;9.05;100.00
37368;BME280;23240;43.210;27.910;2023-02-23T07:13:50;101443.59;;;9.11;100.00
37368;BME280;23240;43.210;27.910;2023-02-23T07:16:15;101445.28;;;9.12;100.00
37368;BME280;23240;43.210;27.910;2023-02-23T07:18:40;101438.13;;;9.13;100.00
37368;BME280;23240;43.210;27.910;2023-02-23T07:21:06;101449.09;;;9.22;100.00
37368;BME280;23240;43.210;27.910;2023-02-23T07:23:31;101445.84;;;9.17;100.00
37368;BME280;23240;43.210;27.910;2023-02-23T07:25:57;101456.19;;;9.09;100.00
37368;BME280;23240;43.210;27.910;2023-02-23T07:28:24;101454.34;;;9.24;100.00
37368;BME280;23240;43.210;27.910;2023-02-23T07:30:54;101450.63;;;9.12;100.00
37368;BME280;23240;43.210;27.910;2023-02-23T07:33:19;101448.94;;;9.11;100.00
37368;BME280;23240;43.210;27.910;2023-02-23T07:35:44;101450.06;;;9.07;100.00
37368;BME280;23240;43.210;27.910;2023-02-23T07:38:10;101458.34;;;9.17;100.00
37368;BME280;23240;43.210;27.910;2023-02-23T07:40:36;101450.59;;;9.26;100.00
37368;BME280;23240;43.210;27.910;2023-02-23T07:43:01;101460.88;;;9.33;100.00
37368;BME280;23240;43.210;27.910;2023-02-23T07:45:27;101451.00;;;9.20;100.00
37368;BME280;23240;43.210;27.910;2023-02-23T07:47:52;101460.91;;;9.18;100.00
37368;BME280;23240;43.210;27.910;2023-02-23T07:50:17;101458.19;;;9.20;100.00
37368;BME280;23240;43.210;27.910;2023-02-23T07:52:43;101457.94;;;9.23;100.00
37368;BME280;23240;43.210;27.910;2023-02-23T07:55:08;101454.78;;;9.31;100.00
37368;BME280;23240;43.210;27.910;2023-02-23T07:57:34;101458.84;;;9.23;100.00
37368;BME280;23240;43.210;27.910;2023-02-23T07:59:59;101469.13;;;9.30;100.00
37368;BME280;23240;43.210;27.910;2023-02-23T08:02:25;101481.69;;;9.42;100.00
37368;BME280;23240;43.210;27.910;2023-02-23T08:04:53;101467.47;;;9.41;100.00
37368;BME280;23240;43.210;27.910;2023-02-23T08:07:18;101470.81;;;9.45;100.00
37368;BME280;23240;43.210;27.910;2023-02-23T08:09:44;101470.84;;;9.31;100.00
37368;BME280;23240;43.210;27.910;2023-02-23T08:12:09;101485.31;;;9.41;100.00
37368;BME280;23240;43.210;27.910;2023-02-23T08:14:35;101488.44;;;9.47;100.00
37368;BME280;23240;43.210;27.910;2023-02-23T08:17:00;101499.16;;;9.47;100.00
37368;BME280;23240;43.210;27.910;2023-02-23T08:19:25;101503.16;;;9.55;100.00
37368;BME280;23240;43.210;27.910;2023-02-23T08:21:51;101495.25;;;9.53;100.00
37368;BME280;23240;43.210;27.910;2023-02-23T08:24:17;101490.88;;;9.65;100.00
37368;BME280;23240;43.210;27.910;2023-02-23T08:26:42;101487.84;;;9.57;100.00
37368;BME280;23240;43.210;27.910;2023-02-23T08:29:08;101495.81;;;9.71;100.00
37368;BME280;23240;43.210;27.910;2023-02-23T08:31:34;101496.06;;;9.81;100.00
37368;BME280;23240;43.210;27.910;2023-02-23T08:33:59;101504.81;;;9.70;100.00
37368;BME280;23240;43.210;27.910;2023-02-23T08:36:24;101500.81;;;9.90;100.00
37368;BME280;23240;43.210;27.910;2023-02-23T08:38:50;101504.41;;;10.03;100.00
37368;BME280;23240;43.210;27.910;2023-02-23T08:41:15;101492.25;;;9.85;100.00
37368;BME280;23240;43.210;27.910;2023-02-23T08:43:41;101512.00;;;9.96;100.00
37368;BME280;23240;43.210;27.910;2023-02-23T08:46:06;101521.19;;;9.92;100.00
37368;BME280;23240;43.210;27.910;2023-02-23T08:48:32;101512.19;;;9.66;100.00
37368;BME280;23240;43.210;27.910;2023-02-23T08:50:57;101513.69;;;9.70;100.00
37368;BME280;23240;43.210;27.910;2023-02-23T08:53:24;101513.41;;;9.75;100.00
37368;BME280;23240;43.210;27.910;2023-02-23T08:55:54;101510.97;;;9.85;100.00
37368;BME280;23240;43.210;27.910;2023-02-23T08:58:19;101513.16;;;9.92;100.00
37368;BME280;23240;43.210;27.910;2023-02-23T09:00:44;101526.78;;;9.75;100.00
37368;BME280;23240;43.210;27.910;2023-02-23T09:03:09;101522.69;;;9.69;100.00
37368;BME280;23240;43.210;27.910;2023-02-23T09:05:35;101515.78;;;9.79;100.00
37368;BME280;23240;43.210;27.910;2023-02-23T09:08:01;101527.84;;;9.72;100.00
37368;BME280;23240;43.210;27.910;2023-02-23T09:10:26;101533.16;;;9.87;100.00
37368;BME280;23240;43.210;27.910;2023-02-23T09:12:53;101533.34;;;9.84;100.00
37368;BME280;23240;43.210;27.910;2023-02-23T09:15:19;101535.66;;;9.75;100.00
37368;BME280;23240;43.210;27.910;2023-02-23T09:17:44;101533.50;;;9.68;100.00
37368;BME280;23240;43.210;27.910;2023-02-23T09:20:11;101541.34;;;9.57;100.00
37368;BME280;23240;43.210;27.910;2023-02-23T09:22:41;101540.97;;;9.63;100.00
37368;BME280;23240;43.210;27.910;2023-02-23T09:25:16;101544.38;;;9.65;100.00
37368;BME280;23240;43.210;27.910;2023-02-23T09:27:47;101541.59;;;9.66;100.00
37368;BME280;23240;43.210;27.910;2023-02-23T09:30:12;101543.72;;;9.61;100.00
37368;BME280;23240;43.210;27.910;2023-02-23T09:32:42;101546.97;;;9.52;100.00
37368;BME280;23240;43.210;27.910;2023-02-23T09:35:08;101549.88;;;9.49;100.00
37368;BME280;23240;43.210;27.910;2023-02-23T09:37:33;101557.38;;;9.57;100.00
37368;BME280;23240;43.210;27.910;2023-02-23T09:39:58;101562.19;;;9.51;100.00
37368;BME280;23240;43.210;27.910;2023-02-23T09:42:35;101555.03;;;9.38;100.00
37368;BME280;23240;43.210;27.910;2023-02-23T09:45:08;101555.06;;;9.23;100.00
37368;BME280;23240;43.210;27.910;2023-02-23T09:47:44;101574.94;;;9.34;100.00
37368;BME280;23240;43.210;27.910;2023-02-23T09:50:13;101578.75;;;9.30;100.00
37368;BME280;23240;43.210;27.910;2023-02-23T09:52:41;101565.09;;;9.20;100.00
37368;BME280;23240;43.210;27.910;2023-02-23T09:55:12;101580.34;;;9.18;100.00
37368;BME280;23240;43.210;27.910;2023-02-23T09:57:39;101568.06;;;9.30;100.00
37368;BME280;23240;43.210;27.910;2023-02-23T10:00:11;101575.50;;;9.39;100.00
37368;BME280;23240;43.210;27.910;2023-02-23T10:02:45;101558.78;;;9.35;100.00
37368;BME280;23240;43.210;27.910;2023-02-23T10:05:15;101566.31;;;9.43;100.00
37368;BME280;23240;43.210;27.910;2023-02-23T10:07:42;101573.66;;;9.53;100.00
37368;BME280;23240;43.210;27.910;2023-02-23T10:12:44;101568.13;;;9.84;100.00
37368;BME280;23240;43.210;27.910;2023-02-23T10:17:39;101583.13;;;10.13;100.00
37368;BME280;23240;43.210;27.910;2023-02-23T10:20:11;101572.31;;;10.15;100.00
37368;BME280;23240;43.210;27.910;2023-02-23T10:22:37;101583.44;;;10.09;100.00
37368;BME280;23240;43.210;27.910;2023-02-23T10:25:18;101570.22;;;9.93;100.00
37368;BME280;23240;43.210;27.910;2023-02-23T10:27:48;101568.56;;;9.90;100.00
37368;BME280;23240;43.210;27.910;2023-02-23T10:30:21;101571.50;;;9.73;100.00
37368;BME280;23240;43.210;27.910;2023-02-23T10:35:21;101570.03;;;10.09;100.00
37368;BME280;23240;43.210;27.910;2023-02-23T10:37:47;101568.63;;;10.03;100.00
37368;BME280;23240;43.210;27.910;2023-02-23T10:40:14;101567.66;;;10.04;100.00
37368;BME280;23240;43.210;27.910;2023-02-23T10:42:41;101572.41;;;10.13;100.00
37368;BME280;23240;43.210;27.910;2023-02-23T10:45:13;101574.59;;;10.21;100.00
37368;BME280;23240;43.210;27.910;2023-02-23T10:47:42;101572.09;;;10.18;100.00
37368;BME280;23240;43.210;27.910;2023-02-23T10:50:08;101571.00;;;10.35;100.00
37368;BME280;23240;43.210;27.910;2023-02-23T10:52:38;101576.03;;;10.26;100.00
37368;BME280;23240;43.210;27.910;2023-02-23T10:55:05;101580.56;;;10.12;100.00
37368;BME280;23240;43.210;27.910;2023-02-23T10:57:35;101579.03;;;10.08;100.00
37368;BME280;23240;43.210;27.910;2023-02-23T11:02:39;101577.97;;;9.83;100.00
37368;BME280;23240;43.210;27.910;2023-02-23T11:05:06;101570.47;;;9.61;100.00
37368;BME280;23240;43.210;27.910;2023-02-23T11:07:38;101574.91;;;9.48;100.00
37368;BME280;23240;43.210;27.910;2023-02-23T11:12:47;101574.69;;;9.51;100.00
37368;BME280;23240;43.210;27.910;2023-02-23T11:17:54;101570.19;;;9.66;100.00
37368;BME280;23240;43.210;27.910;2023-02-23T11:20:23;101578.59;;;9.60;100.00
37368;BME280;23240;43.210;27.910;2023-02-23T11:22:49;101586.03;;;9.69;100.00
37368;BME280;23240;43.210;27.910;2023-02-23T11:25:20;101576.38;;;9.66;100.00
37368;BME280;23240;43.210;27.910;2023-02-23T11:27:49;101570.88;;;9.55;100.00
37368;BME280;23240;43.210;27.910;2023-02-23T11:30:21;101568.78;;;9.46;100.00
37368;BME280;23240;43.210;27.910;2023-02-23T11:32:53;101583.00;;;9.61;100.00
37368;BME280;23240;43.210;27.910;2023-02-23T11:37:44;101589.38;;;9.72;100.00
37368;BME280;23240;43.210;27.910;2023-02-23T11:45:19;101578.69;;;9.72;100.00
37368;BME280;23240;43.210;27.910;2023-02-23T11:47:48;101585.78;;;9.86;100.00
37368;BME280;23240;43.210;27.910;2023-02-23T11:50:28;101576.81;;;9.87;100.00
37368;BME280;23240;43.210;27.910;2023-02-23T11:52:55;101589.69;;;9.68;100.00
37368;BME280;23240;43.210;27.910;2023-02-23T11:55:21;101596.34;;;9.75;100.00
37368;BME280;23240;43.210;27.910;2023-02-23T11:57:49;101589.78;;;9.93;100.00
37368;BME280;23240;43.210;27.910;2023-02-23T12:00:23;101595.00;;;9.82;100.00
37368;BME280;23240;43.210;27.910;2023-02-23T12:02:51;101605.03;;;9.78;100.00
37368;BME280;23240;43.210;27.910;2023-02-23T12:05:26;101594.03;;;9.83;100.00
37368;BME280;23240;43.210;27.910;2023-02-23T12:07:54;101587.13;;;9.93;100.00
37368;BME280;23240;43.210;27.910;2023-02-23T12:13:15;101580.84;;;9.80;100.00
37368;BME280;23240;43.210;27.910;2023-02-23T12:20:42;101593.72;;;9.88;100.00
37368;BME280;23240;43.210;27.910;2023-02-23T12:23:10;101583.44;;;9.82;100.00
37368;BME280;23240;43.210;27.910;2023-02-23T12:25:39;101589.72;;;9.81;100.00
37368;BME280;23240;43.210;27.910;2023-02-23T12:28:12;101585.38;;;9.65;100.00
37368;BME280;23240;43.210;27.910;2023-02-23T12:33:11;101597.25;;;9.33;100.00
37368;BME280;23240;43.210;27.910;2023-02-23T12:35:55;101606.22;;;9.32;100.00
37368;BME280;23240;43.210;27.910;2023-02-23T12:38:28;101593.06;;;9.43;100.00
37368;BME280;23240;43.210;27.910;2023-02-23T12:41:10;101612.72;;;9.42;100.00
37368;BME280;23240;43.210;27.910;2023-02-23T12:43:41;101601.28;;;9.25;100.00
37368;BME280;23240;43.210;27.910;2023-02-23T12:46:17;101610.59;;;9.18;100.00
37368;BME280;23240;43.210;27.910;2023-02-23T12:51:38;101625.16;;;9.14;100.00
37368;BME280;23240;43.210;27.910;2023-02-23T12:54:04;101617.31;;;9.11;100.00
37368;BME280;23240;43.210;27.910;2023-02-23T12:56:48;101618.25;;;9.10;100.00
37368;BME280;23240;43.210;27.910;2023-02-23T13:01:55;101626.75;;;9.17;100.00
37368;BME280;23240;43.210;27.910;2023-02-23T13:05:15;101614.22;;;9.03;100.00
37368;BME280;23240;43.210;27.910;2023-02-23T13:07:20;101615.59;;;9.10;100.00
37368;BME280;23240;43.210;27.910;2023-02-23T13:14:54;101611.56;;;9.03;100.00
37368;BME280;23240;43.210;27.910;2023-02-23T13:19:56;101613.66;;;9.12;100.00
37368;BME280;23240;43.210;27.910;2023-02-23T13:25:29;101625.88;;;9.02;100.00
37368;BME280;23240;43.210;27.910;2023-02-23T13:27:56;101620.69;;;8.85;100.00
37368;BME280;23240;43.210;27.910;2023-02-23T13:30:24;101642.06;;;8.70;100.00
37368;BME280;23240;43.210;27.910;2023-02-23T13:32:49;101628.59;;;8.72;100.00
37368;BME280;23240;43.210;27.910;2023-02-23T13:35:16;101629.78;;;8.82;100.00
37368;BME280;23240;43.210;27.910;2023-02-23T13:38:02;101625.03;;;9.01;100.00
37368;BME280;23240;43.210;27.910;2023-02-23T13:40:39;101613.09;;;8.93;100.00
37368;BME280;23240;43.210;27.910;2023-02-23T13:56:24;101648.88;;;8.60;100.00
37368;BME280;23240;43.210;27.910;2023-02-23T13:58:54;101647.94;;;8.61;100.00
37368;BME280;23240;43.210;27.910;2023-02-23T14:01:30;101671.13;;;8.45;100.00
37368;BME280;23240;43.210;27.910;2023-02-23T14:03:56;101662.09;;;8.32;100.00
37368;BME280;23240;43.210;27.910;2023-02-23T14:06:23;101656.56;;;8.35;100.00
37368;BME280;23240;43.210;27.910;2023-02-23T14:08:51;101674.06;;;8.24;100.00
37368;BME280;23240;43.210;27.910;2023-02-23T14:14:02;101650.56;;;8.15;100.00
37368;BME280;23240;43.210;27.910;2023-02-23T14:16:28;101667.19;;;8.05;100.00
37368;BME280;23240;43.210;27.910;2023-02-23T14:21:32;101664.69;;;8.02;100.00
37368;BME280;23240;43.210;27.910;2023-02-23T14:34:54;101676.56;;;7.96;100.00
37368;BME280;23240;43.210;27.910;2023-02-23T14:39:49;101662.88;;;8.02;100.00
37368;BME280;23240;43.210;27.910;2023-02-23T14:42:20;101672.34;;;7.92;100.00
37368;BME280;23240;43.210;27.910;2023-02-23T14:44:46;101679.84;;;7.85;100.00
37368;BME280;23240;43.210;27.910;2023-02-23T14:47:16;101677.41;;;7.81;100.00
37368;BME280;23240;43.210;27.910;2023-02-23T14:49:43;101671.56;;;7.74;100.00